Terminal Aerodrome Forecast
Issued by NWS Omaha/Valley, NE

Home | Current Version | Previous Version | Text Only | Print | Product List | Glossary On
Versions: 1 2 3 4 5 6 7 8 9 10 11 12 13 14 15 16 17 18
000
FTUS43 KOAX 241120
TAFOFK
TAF
KOFK 241120Z 2412/2512 33020G30KT P6SM SKC
     FM241500 33025G40KT P6SM SKC
     FM242200 33020G28KT P6SM SKC
     FM250100 29010KT P6SM SKC=

USA.gov is the U.S. government's official web portal to all federal, state and local government web resources and services.